Time;durP1;ratioP1;P1;durP2;ratioP2;P2;SDS_P1;SDS_P2;PMS_P1;PMS_P2;Temp;Humidity;BMP_temperature;BMP_pressure;BME280_temperature;BME280_humidity;BME280_pressure;Samples;Min_cycle;Max_cycle;Signal;HPM_P1;HPM_P2
2023/03/08 00:00:00;;;;;;;6.90;2.55;;;;;;;0.52;100.00;99034.53;5080836;29;20096;-72
2023/03/08 00:02:30;;;;;;;5.47;2.50;;;;;;;0.54;100.00;99030.19;5079518;29;20035;-72
2023/03/08 00:05:00;;;;;;;6.90;2.50;;;;;;;0.56;100.00;99041.28;5080052;29;20071;-71
2023/03/08 00:07:31;;;;;;;6.65;3.30;;;;;;;0.60;100.00;99043.78;5078383;29;20127;-72
2023/03/08 00:10:02;;;;;;;5.32;2.58;;;;;;;0.54;100.00;99048.19;5078716;29;20108;-71
2023/03/08 00:12:32;;;;;;;4.85;2.70;;;;;;;0.55;100.00;99043.00;5081592;29;20081;-72
2023/03/08 00:15:02;;;;;;;5.30;2.60;;;;;;;0.66;100.00;99051.34;5078684;29;20159;-72
2023/03/08 00:17:36;;;;;;;6.82;2.90;;;;;;;0.59;100.00;99047.19;5080329;29;20036;-72
2023/03/08 00:20:09;;;;;;;6.43;2.92;;;;;;;0.56;100.00;99060.09;5081111;29;20028;-71
2023/03/08 00:22:40;;;;;;;6.28;2.95;;;;;;;0.63;100.00;99053.97;5081970;29;20488;-72
2023/03/08 00:25:11;;;;;;;6.30;3.25;;;;;;;0.63;100.00;99064.25;5080545;29;20039;-71
2023/03/08 00:27:41;;;;;;;6.43;3.17;;;;;;;0.66;100.00;99058.19;5079987;29;20036;-71
2023/03/08 00:30:12;;;;;;;8.88;3.05;;;;;;;0.70;100.00;99060.69;5080460;29;20091;-71
2023/03/08 00:32:43;;;;;;;6.05;3.20;;;;;;;0.73;100.00;99067.50;5062462;29;20580;-71
2023/03/08 00:35:13;;;;;;;6.88;3.00;;;;;;;0.74;100.00;99066.63;5079391;29;20153;-71
2023/03/08 00:37:43;;;;;;;9.38;3.28;;;;;;;0.83;100.00;99068.97;5079881;29;20303;-71
2023/03/08 00:40:13;;;;;;;6.15;3.22;;;;;;;0.78;100.00;99078.50;5080101;29;20028;-71
2023/03/08 00:42:44;;;;;;;6.85;3.58;;;;;;;0.81;100.00;99071.59;5078918;29;20123;-72
2023/03/08 00:45:14;;;;;;;6.07;3.45;;;;;;;0.87;100.00;99076.59;5079264;29;20046;-71
2023/03/08 00:47:44;;;;;;;7.38;3.70;;;;;;;0.80;100.00;99074.19;5076342;29;20036;-71
2023/03/08 00:50:15;;;;;;;6.20;3.22;;;;;;;0.80;100.00;99077.63;5079617;29;20032;-71
2023/03/08 00:52:45;;;;;;;6.60;3.60;;;;;;;0.77;100.00;99082.81;5078737;29;20118;-71
2023/03/08 00:55:15;;;;;;;7.43;3.22;;;;;;;0.75;100.00;99079.41;5079387;29;20072;-72
2023/03/08 00:57:46;;;;;;;7.90;3.30;;;;;;;0.88;100.00;99078.28;5062173;29;20039;-71
2023/03/08 01:00:16;;;;;;;7.68;3.90;;;;;;;0.89;100.00;99087.69;5080487;29;20064;-71
2023/03/08 01:02:47;;;;;;;8.10;3.80;;;;;;;0.92;100.00;99077.34;5070224;29;20047;-71
2023/03/08 01:05:17;;;;;;;6.03;3.13;;;;;;;0.94;100.00;99075.59;5076944;29;20067;-71
2023/03/08 01:07:47;;;;;;;5.57;2.97;;;;;;;1.01;100.00;99087.44;5079640;29;20032;-72
2023/03/08 01:10:18;;;;;;;6.22;3.10;;;;;;;0.97;100.00;99084.97;5079993;29;20032;-70
2023/03/08 01:12:48;;;;;;;5.78;3.30;;;;;;;0.97;100.00;99085.81;5078937;29;20111;-72
2023/03/08 01:15:18;;;;;;;6.47;3.40;;;;;;;1.04;100.00;99083.97;5080019;29;20032;-70
2023/03/08 01:17:48;;;;;;;7.90;4.07;;;;;;;1.15;100.00;99082.84;5075848;29;20040;-70
2023/03/08 01:20:19;;;;;;;8.50;4.30;;;;;;;1.12;100.00;99085.50;5080255;29;20495;-70
2023/03/08 01:22:49;;;;;;;7.93;3.70;;;;;;;1.15;100.00;99085.41;5079142;29;20075;-70
2023/03/08 01:25:19;;;;;;;8.98;3.83;;;;;;;1.17;100.00;99087.94;5079752;29;20028;-72
2023/03/08 01:27:50;;;;;;;9.40;4.63;;;;;;;1.16;100.00;99081.97;5081471;29;20119;-71
2023/03/08 01:30:20;;;;;;;11.25;4.43;;;;;;;1.19;100.00;99083.59;5084002;29;20033;-71
2023/03/08 01:32:50;;;;;;;10.13;4.53;;;;;;;1.26;100.00;99078.28;5082628;29;20035;-71
2023/03/08 01:35:21;;;;;;;10.10;4.30;;;;;;;1.36;100.00;99068.63;5083578;29;20487;-71
2023/03/08 01:37:54;;;;;;;6.85;3.47;;;;;;;1.20;100.00;99068.16;5082805;29;20055;-70
2023/03/08 01:40:24;;;;;;;5.32;3.22;;;;;;;1.15;100.00;99069.97;5083630;29;20040;-72
2023/03/08 01:42:54;;;;;;;5.72;3.22;;;;;;;1.05;100.00;99072.81;5082401;29;20083;-71
2023/03/08 01:46:02;;;;;;;5.40;3.22;;;;;;;1.16;100.00;99065.66;5082197;29;20034;-71
2023/03/08 01:48:38;;;;;;;5.57;3.13;;;;;;;1.01;100.00;99066.88;5079852;29;20478;-71
2023/03/08 01:51:12;;;;;;;7.18;3.15;;;;;;;1.05;100.00;99063.34;5082396;29;20032;-71
2023/03/08 01:53:42;;;;;;;6.47;3.47;;;;;;;0.95;100.00;99073.88;5081487;29;20032;-71
2023/03/08 01:56:16;;;;;;;7.95;4.03;;;;;;;0.97;100.00;99075.53;5082721;29;20044;-71
2023/03/08 01:58:48;;;;;;;5.90;3.63;;;;;;;1.08;100.00;99063.25;5081912;29;20028;-70
2023/03/08 02:01:19;;;;;;;6.68;3.13;;;;;;;1.02;100.00;99062.56;5082238;29;20340;-70
2023/03/08 02:03:50;;;;;;;7.47;3.33;;;;;;;1.14;100.00;99058.00;5081332;29;20091;-70
2023/03/08 02:06:21;;;;;;;8.98;3.80;;;;;;;1.07;100.00;99060.75;5083109;29;20051;-71
2023/03/08 02:08:52;;;;;;;8.80;3.50;;;;;;;1.07;100.00;99059.00;5081606;29;20043;-70
2023/03/08 02:11:24;;;;;;;5.40;3.50;;;;;;;1.08;100.00;99052.97;5081990;29;20028;-71
2023/03/08 02:13:54;;;;;;;8.00;3.55;;;;;;;1.09;100.00;99048.69;5064665;29;20028;-71
2023/03/08 02:16:24;;;;;;;8.25;3.60;;;;;;;1.12;100.00;99048.63;5078923;29;20040;-70
2023/03/08 02:18:58;;;;;;;6.45;3.80;;;;;;;1.12;100.00;99053.75;5078462;29;20032;-70
2023/03/08 02:21:30;;;;;;;8.73;3.60;;;;;;;1.08;100.00;99057.28;5081789;29;20019;-70
2023/03/08 02:24:18;;;;;;;5.93;3.50;;;;;;;0.96;100.00;99055.84;5081725;29;20059;-71
2023/03/08 02:26:51;;;;;;;5.10;3.28;;;;;;;1.02;100.00;99055.69;5082353;29;20055;-70
2023/03/08 02:29:21;;;;;;;5.05;2.95;;;;;;;1.12;100.00;99054.63;5081944;29;20498;-72
2023/03/08 02:31:51;;;;;;;6.47;3.60;;;;;;;1.15;100.00;99049.41;5080850;29;20042;-71
2023/03/08 02:34:22;;;;;;;7.15;3.30;;;;;;;1.21;100.00;99051.84;5081872;29;20032;-69
2023/03/08 02:36:52;;;;;;;4.65;2.90;;;;;;;1.14;100.00;99052.88;5081961;29;20032;-70
2023/03/08 02:39:22;;;;;;;7.57;3.10;;;;;;;1.07;100.00;99059.00;5080643;29;20020;-71
2023/03/08 02:41:52;;;;;;;8.45;3.45;;;;;;;1.08;100.00;99052.97;5081414;29;20036;-71
2023/03/08 02:44:23;;;;;;;7.13;3.42;;;;;;;1.22;100.00;99050.13;5080702;29;20473;-71
2023/03/08 02:46:53;;;;;;;7.38;2.80;;;;;;;1.14;100.00;99052.88;5080077;29;20032;-71
2023/03/08 02:49:23;;;;;;;5.07;3.35;;;;;;;1.07;100.00;99042.75;5080722;29;20044;-72
2023/03/08 02:51:54;;;;;;;7.90;3.20;;;;;;;1.18;100.00;99048.47;5080831;29;20054;-71
2023/03/08 02:54:24;;;;;;;5.55;3.17;;;;;;;1.21;100.00;99044.13;5064311;29;20031;-70
2023/03/08 02:56:54;;;;;;;5.63;2.75;;;;;;;1.27;100.00;99043.13;5081966;29;20521;-71
2023/03/08 02:59:25;;;;;;;6.35;3.03;;;;;;;1.18;100.00;99044.19;5081299;29;20028;-71
2023/03/08 03:01:56;;;;;;;11.02;3.03;;;;;;;1.22;100.00;99045.81;5079058;29;20133;-69
2023/03/08 03:04:31;;;;;;;5.43;3.22;;;;;;;1.24;100.00;99048.34;5069586;29;20041;-71
2023/03/08 03:07:02;;;;;;;5.63;3.20;;;;;;;1.21;100.00;99044.13;5081567;29;20130;-70
2023/03/08 03:09:36;;;;;;;4.55;2.47;;;;;;;1.32;100.00;99044.72;5079811;29;20519;-71
2023/03/08 03:12:06;;;;;;;6.47;2.80;;;;;;;1.23;100.00;99042.34;5063497;29;20067;-71
2023/03/08 03:14:37;;;;;;;6.53;3.05;;;;;;;1.21;100.00;99036.41;5080268;29;20067;-70
2023/03/08 03:17:07;;;;;;;5.13;2.85;;;;;;;1.23;100.00;99042.34;5078221;29;20038;-71
2023/03/08 03:19:38;;;;;;;7.63;3.85;;;;;;;1.27;100.00;99036.25;5080581;29;20052;-71
2023/03/08 03:22:08;;;;;;;7.50;3.83;;;;;;;1.29;100.00;99039.66;5080722;29;20036;-71
2023/03/08 03:24:39;;;;;;;6.07;2.63;;;;;;;1.17;100.00;99042.50;5080539;29;20402;-70
2023/03/08 03:27:09;;;;;;;8.32;2.90;;;;;;;1.15;100.00;99039.13;5080835;29;20040;-71
2023/03/08 03:29:39;;;;;;;4.70;2.78;;;;;;;1.19;100.00;99042.44;5080445;29;20040;-70
2023/03/08 03:32:10;;;;;;;5.07;2.78;;;;;;;1.20;100.00;99045.00;5079115;29;20084;-71
2023/03/08 03:34:41;;;;;;;7.80;2.90;;;;;;;1.18;100.00;99036.47;5080058;29;20060;-71
2023/03/08 03:37:11;;;;;;;4.68;2.30;;;;;;;1.11;100.00;99041.78;5080514;29;20063;-71
2023/03/08 03:39:41;;;;;;;5.28;2.72;;;;;;;1.18;100.00;99044.19;5063781;29;20118;-71
2023/03/08 03:42:12;;;;;;;4.68;2.42;;;;;;;1.14;100.00;99042.56;5079259;29;20293;-72
2023/03/08 03:44:42;;;;;;;5.10;2.83;;;;;;;1.16;100.00;99045.97;5079228;29;20040;-72
2023/03/08 03:47:12;;;;;;;4.53;2.80;;;;;;;1.16;100.00;99045.09;5079408;29;20032;-71
2023/03/08 03:49:43;;;;;;;6.28;3.17;;;;;;;1.11;100.00;99042.66;5079453;29;20036;-71
2023/03/08 03:52:13;;;;;;;5.57;2.70;;;;;;;1.07;100.00;99035.03;5079849;29;20494;-71
2023/03/08 03:54:43;;;;;;;6.13;2.60;;;;;;;1.17;100.00;99046.78;5080206;29;20039;-71
2023/03/08 03:57:14;;;;;;;5.60;3.00;;;;;;;1.21;100.00;99048.44;5080184;29;20727;-70
2023/03/08 03:59:44;;;;;;;6.13;3.25;;;;;;;1.00;100.00;99044.59;5080076;29;20175;-70
2023/03/08 04:02:14;;;;;;;5.15;2.80;;;;;;;1.00;100.00;99039.47;5078329;29;20051;-70
2023/03/08 04:04:48;;;;;;;7.47;2.67;;;;;;;1.00;100.00;99042.03;5079066;29;20058;-70
2023/03/08 04:07:18;;;;;;;4.35;2.65;;;;;;;1.04;100.00;99046.22;5080594;29;20054;-70
2023/03/08 04:09:48;;;;;;;5.07;2.83;;;;;;;0.95;100.00;99041.28;5079724;29;20028;-70
2023/03/08 04:12:19;;;;;;;6.82;2.78;;;;;;;1.06;100.00;99048.78;5079270;29;20043;-71
2023/03/08 04:14:49;;;;;;;4.75;2.60;;;;;;;1.08;100.00;99041.88;5078508;29;20562;-72
2023/03/08 04:17:19;;;;;;;6.35;3.10;;;;;;;0.93;100.00;99032.75;5077269;29;20035;-71
2023/03/08 04:19:49;;;;;;;8.23;2.78;;;;;;;0.91;100.00;99033.69;5079213;29;20463;-71
2023/03/08 04:22:20;;;;;;;6.25;3.38;;;;;;;1.08;100.00;99036.72;5079684;29;20035;-71
2023/03/08 04:24:50;;;;;;;5.80;3.35;;;;;;;0.87;100.00;99032.88;5079730;29;20041;-71
2023/03/08 04:27:20;;;;;;;5.10;3.22;;;;;;;0.86;100.00;99038.09;5079401;29;20027;-71
2023/03/08 04:29:51;;;;;;;6.57;3.92;;;;;;;0.84;100.00;99042.38;5079452;29;20039;-71
2023/03/08 04:32:22;;;;;;;7.70;3.40;;;;;;;0.75;100.00;99033.16;5078839;29;20132;-71
2023/03/08 04:34:52;;;;;;;10.68;3.50;;;;;;;0.66;100.00;99033.34;5078842;29;20115;-71
2023/03/08 04:37:23;;;;;;;7.93;3.50;;;;;;;0.64;100.00;99044.53;5078734;29;20063;-72
2023/03/08 04:39:53;;;;;;;7.80;3.72;;;;;;;0.61;100.00;99042.91;5078746;29;20626;-72
2023/03/08 04:42:24;;;;;;;9.10;4.32;;;;;;;0.52;100.00;99040.50;5078828;29;20032;-69
2023/03/08 04:44:55;;;;;;;7.88;3.55;;;;;;;0.55;100.00;99040.44;5074312;29;20051;-70
2023/03/08 04:47:25;;;;;;;9.98;4.07;;;;;;;0.47;100.00;99037.19;5065536;29;20401;-73
2023/03/08 04:49:55;;;;;;;11.20;4.25;;;;;;;0.45;100.00;99028.66;5092552;29;20028;-72
2023/03/08 04:52:25;;;;;;;11.63;4.63;;;;;;;0.41;100.00;99032.16;5079732;29;20028;-71
2023/03/08 04:54:56;;;;;;;12.90;4.55;;;;;;;0.43;100.00;99030.44;5078350;29;20036;-72
2023/03/08 04:57:26;;;;;;;13.07;4.22;;;;;;;0.42;100.00;99033.00;5072563;29;20087;-72
2023/03/08 04:59:56;;;;;;;9.75;4.38;;;;;;;0.40;100.00;99035.59;5078968;29;20106;-71
2023/03/08 05:02:27;;;;;;;10.77;4.45;;;;;;;0.40;100.00;99035.59;5079919;29;20047;-73
2023/03/08 05:04:57;;;;;;;10.85;4.57;;;;;;;0.44;100.00;99028.69;5083093;29;20034;-71
2023/03/08 05:07:27;;;;;;;11.40;4.60;;;;;;;0.38;100.00;99027.06;5083037;29;20032;-71
2023/03/08 05:09:57;;;;;;;10.45;4.97;;;;;;;0.42;100.00;99035.56;5076918;29;20028;-71
2023/03/08 05:12:28;;;;;;;13.50;4.63;;;;;;;0.46;100.00;99030.34;5083204;29;20027;-71
2023/03/08 05:14:58;;;;;;;9.52;4.47;;;;;;;0.51;100.00;99037.94;5082890;29;20036;-72
2023/03/08 05:17:28;;;;;;;13.82;4.95;;;;;;;0.38;100.00;99032.22;5082726;29;20212;-71
2023/03/08 05:19:59;;;;;;;12.88;5.15;;;;;;;0.35;100.00;99034.03;5075703;29;20027;-72
2023/03/08 05:22:29;;;;;;;14.45;5.50;;;;;;;0.43;100.00;99042.41;5065671;29;20042;-71
2023/03/08 05:24:59;;;;;;;13.23;5.82;;;;;;;0.41;100.00;99036.47;5083297;29;20036;-73
2023/03/08 05:27:34;;;;;;;10.38;5.32;;;;;;;0.38;100.00;99032.22;5082791;29;20024;-71
2023/03/08 05:30:05;;;;;;;9.60;4.67;;;;;;;0.36;100.00;99031.41;5083336;29;20031;-71
2023/03/08 05:32:35;;;;;;;14.32;5.47;;;;;;;0.36;100.00;99028.84;5065714;29;20650;-71
2023/03/08 05:35:06;;;;;;;12.32;4.97;;;;;;;0.33;100.00;99033.19;5082834;29;20051;-71
2023/03/08 05:37:36;;;;;;;9.43;4.47;;;;;;;0.29;100.00;99029.84;5082531;29;20031;-71
2023/03/08 05:40:07;;;;;;;10.30;5.22;;;;;;;0.24;100.00;99026.50;5082881;29;20048;-70
2023/03/08 05:42:37;;;;;;;15.55;5.95;;;;;;;0.19;100.00;99030.06;5082722;29;20046;-71
2023/03/08 05:45:08;;;;;;;12.85;5.40;;;;;;;0.16;100.00;99027.53;5080698;29;20031;-71
2023/03/08 05:47:38;;;;;;;13.95;5.80;;;;;;;0.16;100.00;99025.81;5081453;29;20035;-71
2023/03/08 05:50:09;;;;;;;13.95;5.85;;;;;;;0.13;100.00;99020.75;5083356;29;20028;-71
2023/03/08 05:52:41;;;;;;;17.70;6.78;;;;;;;0.16;100.00;99018.13;5082462;29;20094;-71
2023/03/08 05:55:12;;;;;;;17.05;6.45;;;;;;;0.19;100.00;99012.09;5079606;29;20024;-71
2023/03/08 05:57:42;;;;;;;18.73;6.18;;;;;;;0.17;100.00;99011.22;5073622;29;20411;-71
2023/03/08 06:00:13;;;;;;;15.02;6.28;;;;;;;0.15;100.00;99003.59;5092331;29;20090;-71
2023/03/08 06:02:44;;;;;;;14.90;5.70;;;;;;;0.17;100.00;99003.53;5083639;29;20066;-72
2023/03/08 06:05:14;;;;;;;14.35;5.45;;;;;;;0.38;100.00;99001.38;5082981;29;20238;-72
2023/03/08 06:07:44;;;;;;;15.45;6.40;;;;;;;0.32;100.00;99011.81;5086484;29;20043;-72
2023/03/08 06:10:16;;;;;;;10.75;5.53;;;;;;;0.29;100.00;99008.44;5091285;29;20032;-72
2023/03/08 06:12:46;;;;;;;15.38;5.95;;;;;;;0.40;100.00;99019.34;5086094;29;20450;-71
2023/03/08 06:15:18;;;;;;;11.40;5.68;;;;;;;0.60;100.00;99025.78;5074866;29;20087;-71
2023/03/08 06:17:51;;;;;;;13.52;6.18;;;;;;;0.67;100.00;99024.75;5082604;29;20035;-71
2023/03/08 06:20:22;;;;;;;11.43;5.82;;;;;;;0.67;100.00;99027.34;5082751;29;20501;-71
2023/03/08 06:22:52;;;;;;;14.35;5.95;;;;;;;0.76;100.00;99014.28;5082329;29;20028;-71
2023/03/08 06:25:22;;;;;;;12.15;5.47;;;;;;;0.84;100.00;99025.25;5082824;29;20032;-71
2023/03/08 06:27:52;;;;;;;13.20;6.32;;;;;;;0.65;100.00;99023.97;5083020;29;20051;-71
2023/03/08 06:30:23;;;;;;;16.88;5.35;;;;;;;0.66;100.00;99030.78;5065810;29;20063;-70
2023/03/08 06:32:53;;;;;;;12.80;5.80;;;;;;;0.73;100.00;99029.75;5066051;29;20032;-72
2023/03/08 06:35:23;;;;;;;11.20;5.43;;;;;;;1.01;100.00;99035.16;5079809;29;20039;-72
2023/03/08 06:37:54;;;;;;;15.05;6.20;;;;;;;0.94;100.00;99034.47;5079537;29;20027;-72
2023/03/08 06:40:24;;;;;;;16.60;6.65;;;;;;;1.04;100.00;99029.97;5080572;29;20032;-71
2023/03/08 06:42:54;;;;;;;14.50;6.15;;;;;;;1.01;100.00;99041.16;5061704;29;20055;-70
2023/03/08 06:45:25;;;;;;;12.40;5.90;;;;;;;1.01;100.00;99036.00;5080549;29;20520;-71
2023/03/08 06:47:55;;;;;;;15.02;6.15;;;;;;;1.05;100.00;99027.34;5080455;29;20466;-71
2023/03/08 06:50:26;;;;;;;17.25;7.22;;;;;;;1.11;100.00;99034.94;5080125;29;20028;-72
2023/03/08 06:52:56;;;;;;;14.32;6.28;;;;;;;1.14;100.00;99022.00;5076580;29;20039;-70
2023/03/08 06:55:26;;;;;;;14.90;6.93;;;;;;;1.24;100.00;99008.03;5080508;29;20028;-70
2023/03/08 06:57:57;;;;;;;14.30;6.40;;;;;;;1.39;100.00;99011.97;5080922;29;20474;-71
2023/03/08 07:00:27;;;;;;;11.88;6.10;;;;;;;1.51;100.00;99019.38;5081138;29;20040;-71
2023/03/08 07:02:58;;;;;;;12.68;6.50;;;;;;;1.30;100.00;99013.03;5080421;29;20111;-71
2023/03/08 07:05:29;;;;;;;12.73;6.15;;;;;;;1.47;100.00;99016.06;5080021;29;20024;-71
2023/03/08 07:07:59;;;;;;;11.48;5.82;;;;;;;1.34;100.00;99008.66;5080895;29;20036;-72
2023/03/08 07:10:30;;;;;;;11.02;5.82;;;;;;;1.43;100.00;99009.28;5081876;29;20418;-72
2023/03/08 07:13:00;;;;;;;12.98;5.88;;;;;;;1.46;100.00;99005.78;5082599;29;20019;-72
2023/03/08 07:15:31;;;;;;;14.73;5.85;;;;;;;1.46;100.00;99014.38;5078273;23;20019;-78
2023/03/08 07:18:01;;;;;;;11.93;5.47;;;;;;;1.56;100.00;98999.53;5085684;29;20039;-78
2023/03/08 07:20:32;;;;;;;14.00;6.57;;;;;;;1.54;100.00;99001.31;5087324;29;20027;-78
2023/03/08 07:23:02;;;;;;;16.35;6.22;;;;;;;1.64;100.00;99006.19;5079337;29;20035;-78
2023/03/08 07:25:32;;;;;;;12.93;6.53;;;;;;;1.85;100.00;99008.22;5077631;29;20510;-78
2023/03/08 07:28:03;;;;;;;11.57;5.95;;;;;;;1.94;100.00;99008.81;5076450;29;20568;-78
2023/03/08 07:30:33;;;;;;;14.85;6.75;;;;;;;2.07;100.00;99004.16;5079691;29;20032;-78
2023/03/08 07:33:03;;;;;;;14.45;6.65;;;;;;;2.19;100.00;98998.69;5078241;29;20114;-78
2023/03/08 07:35:33;;;;;;;14.00;7.13;;;;;;;2.30;100.00;99007.00;5079534;29;20036;-79
2023/03/08 07:38:04;;;;;;;13.07;5.82;;;;;;;2.27;100.00;98989.88;5083194;29;20164;-79
2023/03/08 07:40:34;;;;;;;17.13;7.03;;;;;;;2.08;100.00;98985.25;5084221;29;20058;-78
2023/03/08 07:43:05;;;;;;;13.13;6.43;;;;;;;1.83;100.00;98985.06;5079644;29;20451;-78
2023/03/08 07:45:38;;;;;;;15.70;6.63;;;;;;;1.82;100.00;98980.81;5079296;29;20207;-78
2023/03/08 07:48:08;;;;;;;12.73;6.13;;;;;;;2.05;100.00;98975.91;5076609;29;20090;-78
2023/03/08 07:50:39;;;;;;;12.05;6.45;;;;;;;2.13;100.00;98984.25;5078715;29;20032;-78
2023/03/08 07:53:09;;;;;;;12.85;6.10;;;;;;;2.35;100.00;98958.72;5079527;29;20042;-75
2023/03/08 07:55:39;;;;;;;13.35;5.93;;;;;;;2.28;100.00;98970.09;5079952;29;20482;-76
2023/03/08 07:58:10;;;;;;;10.00;5.43;;;;;;;2.61;100.00;98962.25;5079391;29;20024;-76
2023/03/08 08:00:40;;;;;;;12.75;6.20;;;;;;;2.55;100.00;98959.00;5079963;29;20487;-75
2023/03/08 08:03:10;;;;;;;13.32;5.88;;;;;;;2.65;100.00;98955.25;5079140;29;20557;-72
2023/03/08 08:05:40;;;;;;;13.77;6.10;;;;;;;2.61;100.00;98961.38;5079791;29;20067;-75
2023/03/08 08:08:12;;;;;;;12.30;6.32;;;;;;;2.66;100.00;98955.19;5084670;29;20035;-75
2023/03/08 08:10:43;;;;;;;14.05;6.07;;;;;;;2.86;100.00;98946.88;5088800;29;20139;-75
2023/03/08 08:13:13;;;;;;;12.30;6.40;;;;;;;3.01;100.00;98943.81;5088821;29;20111;-73
2023/03/08 08:15:43;;;;;;;13.57;6.05;;;;;;;3.05;99.85;98953.13;5082497;29;20469;-75
2023/03/08 08:18:13;;;;;;;11.15;5.65;;;;;;;3.05;100.00;98958.28;5082118;29;20046;-75
2023/03/08 08:20:44;;;;;;;10.70;5.75;;;;;;;3.03;100.00;98954.94;5087139;29;20537;-76
2023/03/08 08:23:14;;;;;;;11.98;5.93;;;;;;;2.88;100.00;98950.25;5078001;29;20414;-76
2023/03/08 08:25:46;;;;;;;11.00;5.85;;;;;;;2.96;100.00;98959.44;5079018;29;20492;-76
2023/03/08 08:28:16;;;;;;;10.43;5.45;;;;;;;2.94;100.00;98956.06;5078711;29;20056;-75
2023/03/08 08:30:58;;;;;;;11.90;5.47;;;;;;;2.85;100.00;98958.06;5078931;29;20498;-75
2023/03/08 08:33:29;;;;;;;12.85;6.47;;;;;;;2.85;100.00;98947.75;5073815;29;20265;-74
2023/03/08 08:36:03;;;;;;;12.50;6.35;;;;;;;2.80;100.00;98952.19;5078558;29;20039;-74
2023/03/08 08:38:34;;;;;;;11.50;6.05;;;;;;;2.74;100.00;98947.22;5085071;29;20122;-75
2023/03/08 08:41:07;;;;;;;11.85;6.28;;;;;;;2.58;100.00;98946.88;5086053;29;20175;-76
2023/03/08 08:43:37;;;;;;;10.45;5.60;;;;;;;2.84;100.00;98944.31;5077007;29;20525;-76
2023/03/08 08:46:08;;;;;;;13.30;6.18;;;;;;;2.86;100.00;98934.78;5077757;29;20024;-76
2023/03/08 08:48:38;;;;;;;14.23;6.53;;;;;;;2.94;100.00;98939.72;5083707;29;20617;-75
2023/03/08 08:51:11;;;;;;;12.70;6.03;;;;;;;3.01;100.00;98936.91;5086725;29;20234;-76
2023/03/08 08:53:43;;;;;;;14.07;5.85;;;;;;;2.88;100.00;98938.16;5077799;29;20115;-73
2023/03/08 08:56:16;;;;;;;11.18;5.47;;;;;;;3.03;100.00;98934.28;5084056;29;20047;-76
2023/03/08 08:58:47;;;;;;;12.10;6.07;;;;;;;3.15;100.00;98933.88;5082904;29;20491;-76
2023/03/08 09:01:20;;;;;;;12.27;6.35;;;;;;;3.21;100.00;98933.69;5079910;29;20059;-75
2023/03/08 09:03:51;;;;;;;13.85;6.60;;;;;;;3.20;100.00;98932.00;5077926;29;20027;-77
2023/03/08 09:06:23;;;;;;;15.10;6.93;;;;;;;3.21;100.00;98928.53;5067413;29;20114;-78
2023/03/08 09:08:56;;;;;;;12.02;6.25;;;;;;;3.17;100.00;98927.78;5078862;29;20080;-77
2023/03/08 09:11:27;;;;;;;12.57;6.30;;;;;;;3.36;100.00;98934.03;5078378;29;20028;-77
2023/03/08 09:13:58;;;;;;;11.82;5.93;;;;;;;3.08;100.00;98929.81;5078199;29;20051;-77
2023/03/08 09:16:31;;;;;;;12.05;5.88;;;;;;;3.40;100.00;98933.03;5078870;29;20443;-77
2023/03/08 09:19:03;;;;;;;11.55;5.50;;;;;;;3.41;99.99;98921.81;5081290;29;20047;-77
2023/03/08 09:21:33;;;;;;;9.95;5.40;;;;;;;3.41;99.01;98918.38;5080478;29;20107;-77
2023/03/08 09:24:05;;;;;;;11.73;5.93;;;;;;;3.56;100.00;98917.88;5078673;29;20123;-77
2023/03/08 09:26:35;;;;;;;10.07;5.72;;;;;;;3.39;99.15;98917.59;5092380;29;20036;-77
2023/03/08 09:29:06;;;;;;;14.45;6.18;;;;;;;3.28;96.44;98907.63;5078506;29;20036;-77
2023/03/08 09:31:38;;;;;;;10.20;5.70;;;;;;;3.42;96.25;98907.16;5077913;29;20032;-77
2023/03/08 09:34:10;;;;;;;10.90;5.68;;;;;;;3.28;97.44;98901.63;5077390;29;20100;-76
2023/03/08 09:36:41;;;;;;;12.82;6.07;;;;;;;3.27;97.52;98900.78;5079547;29;20032;-76
2023/03/08 09:39:12;;;;;;;11.27;6.28;;;;;;;3.15;96.83;98897.75;5086455;29;20034;-76
2023/03/08 09:41:42;;;;;;;11.10;6.30;;;;;;;3.06;99.58;98895.47;5077266;29;20878;-76
2023/03/08 09:44:42;;;;;;;10.30;5.33;;;;;;;3.21;96.52;98887.25;5084218;29;20032;-77
2023/03/08 09:47:29;;;;;;;10.45;5.80;;;;;;;3.49;99.08;98878.50;5077362;29;20834;-74
2023/03/08 09:50:26;;;;;;;12.13;5.82;;;;;;;3.46;96.11;98870.00;5082111;29;20055;-75
2023/03/08 09:53:03;;;;;;;12.13;5.40;;;;;;;3.36;95.66;98863.50;5059159;29;20107;-76
2023/03/08 09:55:37;;;;;;;11.98;6.60;;;;;;;3.59;97.95;98860.06;5081471;29;20028;-77
2023/03/08 09:58:21;;;;;;;13.05;6.47;;;;;;;3.71;96.24;98864.81;5082136;29;20028;-78
2023/03/08 10:00:52;;;;;;;10.07;5.72;;;;;;;3.84;97.57;98850.56;5082527;29;20035;-77
2023/03/08 10:03:57;;;;;;;12.68;6.45;;;;;;;3.76;96.48;98847.38;5081603;29;20040;-76
2023/03/08 10:06:35;;;;;;;11.70;5.93;;;;;;;3.72;94.16;98844.97;5074532;29;20038;-77
2023/03/08 10:09:34;;;;;;;11.63;5.65;;;;;;;3.88;96.56;98846.94;5086693;29;20114;-77
2023/03/08 10:12:23;;;;;;;11.70;5.75;;;;;;;3.74;94.68;98838.84;5079818;29;20402;-77
2023/03/08 10:15:00;;;;;;;12.98;6.38;;;;;;;3.70;96.12;98832.13;5074981;29;20032;-77
2023/03/08 10:17:51;;;;;;;12.80;5.75;;;;;;;3.74;95.10;98832.84;5077914;29;20039;-77
2023/03/08 10:20:31;;;;;;;11.68;5.70;;;;;;;3.80;94.88;98827.47;5081344;29;20036;-77
2023/03/08 10:23:12;;;;;;;12.15;6.13;;;;;;;3.74;95.25;98823.34;5083433;29;20036;-77
2023/03/08 10:25:43;;;;;;;10.73;5.05;;;;;;;3.70;91.19;98819.22;5085267;29;20032;-77
2023/03/08 10:28:15;;;;;;;9.50;5.00;;;;;;;3.84;91.70;98824.72;5081032;29;20067;-77
2023/03/08 10:30:52;;;;;;;12.68;6.00;;;;;;;3.56;91.76;98822.34;5083485;29;20059;-76
2023/03/08 10:33:23;;;;;;;21.88;10.75;;;;;;;3.57;91.41;98805.94;5079640;29;20110;-77
2023/03/08 10:36:01;;;;;;;10.95;5.80;;;;;;;3.91;92.64;98800.34;5081250;29;20398;-76
2023/03/08 10:38:34;;;;;;;10.32;4.90;;;;;;;3.60;90.08;98804.09;5062062;29;20414;-76
2023/03/08 10:41:12;;;;;;;13.38;6.82;;;;;;;3.60;93.03;98798.94;5088231;29;20111;-77
2023/03/08 10:43:48;;;;;;;10.65;5.57;;;;;;;3.92;92.96;98789.09;5085004;29;20027;-77
2023/03/08 10:46:29;;;;;;;10.05;5.15;;;;;;;3.74;91.04;98792.38;5084408;29;20024;-77
2023/03/08 10:49:14;;;;;;;9.60;4.80;;;;;;;3.84;91.95;98785.97;5070094;29;20028;-75
2023/03/08 10:51:59;;;;;;;10.77;5.80;;;;;;;3.58;90.87;98786.06;5080513;29;20039;-76
2023/03/08 10:54:29;;;;;;;17.50;6.40;;;;;;;3.55;92.66;98780.16;5080412;29;20040;-74
2023/03/08 10:57:01;;;;;;;10.68;5.78;;;;;;;3.88;95.03;98766.88;5082695;29;20043;-74
2023/03/08 10:59:34;;;;;;;14.07;5.78;;;;;;;3.99;93.31;98771.63;5079716;29;20434;-77
2023/03/08 11:02:13;;;;;;;8.93;4.78;;;;;;;4.02;91.05;98758.59;5082244;29;20036;-77
2023/03/08 11:05:17;;;;;;;9.80;5.40;;;;;;;3.94;92.63;98755.47;5079560;29;20036;-77
2023/03/08 11:07:53;;;;;;;10.10;5.00;;;;;;;3.91;89.76;98753.81;5081655;29;20195;-77
2023/03/08 11:10:25;;;;;;;9.27;5.13;;;;;;;3.91;89.84;98747.81;5087008;29;20059;-77
2023/03/08 11:13:05;;;;;;;12.48;6.18;;;;;;;3.64;90.86;98762.59;5079398;29;20100;-76
2023/03/08 11:15:39;;;;;;;11.00;5.57;;;;;;;3.72;90.71;98755.44;5063135;29;20094;-77
2023/03/08 11:18:41;;;;;;;11.38;5.88;;;;;;;3.89;92.93;98753.03;5065010;29;20028;-75
2023/03/08 11:21:24;;;;;;;12.00;6.25;;;;;;;3.74;92.59;98756.22;5068344;29;20615;-77
2023/03/08 11:24:06;;;;;;;12.88;5.85;;;;;;;4.06;95.14;98758.41;5080016;29;20071;-77
2023/03/08 11:27:19;;;;;;;10.77;5.30;;;;;;;3.47;89.80;98755.53;5088606;29;20494;-77
2023/03/08 11:29:58;;;;;;;11.10;5.13;;;;;;;3.76;91.96;98751.81;5056184;29;20210;-76
2023/03/08 11:32:44;;;;;;;9.75;4.97;;;;;;;3.96;93.17;98741.56;5077749;29;20032;-76
2023/03/08 11:35:35;;;;;;;12.50;5.93;;;;;;;3.54;94.49;98751.84;5079453;29;20039;-76
2023/03/08 11:38:17;;;;;;;12.40;6.35;;;;;;;3.48;94.79;98754.63;5084062;29;20028;-76
2023/03/08 11:41:13;;;;;;;11.88;5.70;;;;;;;3.43;94.53;98756.53;5086400;29;20024;-76
2023/03/08 11:43:54;;;;;;;15.13;5.40;;;;;;;3.14;94.25;98752.44;5081047;29;20035;-76
2023/03/08 11:47:03;;;;;;;10.75;5.50;;;;;;;3.31;97.55;98744.94;5084943;29;20039;-77
2023/03/08 11:50:04;;;;;;;10.10;5.47;;;;;;;3.35;98.47;98750.81;5080683;29;20564;-76
2023/03/08 11:52:50;;;;;;;10.00;5.13;;;;;;;3.29;96.54;98754.47;5077588;29;20047;-77
2023/03/08 11:55:58;;;;;;;10.45;5.10;;;;;;;3.37;99.12;98751.63;5079921;29;20050;-76
2023/03/08 11:58:51;;;;;;;9.30;4.65;;;;;;;3.64;96.94;98741.94;5076112;29;20519;-77